createdAt,value
2019-06-27T00:00:01.899Z,102117.27
2019-06-27T00:05:05.870Z,102114.19
2019-06-27T00:10:09.736Z,102115.66
2019-06-27T00:15:14.877Z,102121.23
2019-06-27T00:20:18.163Z,102118.11
2019-06-27T00:25:21.778Z,102118.81
2019-06-27T00:30:25.317Z,102127.61
2019-06-27T00:42:19.652Z,102121.02
2019-06-27T00:47:22.595Z,102123.03
2019-06-27T00:52:25.587Z,102108.73
2019-06-27T00:57:29.285Z,102108.22
2019-06-27T01:02:32.186Z,102111.83
2019-06-27T01:07:35.099Z,102114.19
2019-06-27T01:12:38.356Z,102115.13
2019-06-27T01:17:41.284Z,102111.45
2019-06-27T01:22:44.252Z,102100.23
2019-06-27T01:27:47.029Z,102102.63
2019-06-27T01:32:50.290Z,102108.88
2019-06-27T01:37:53.611Z,102115.69
2019-06-27T01:42:56.858Z,102118.33
2019-06-27T01:48:00.399Z,102115.59
2019-06-27T01:53:03.016Z,102115.99
2019-06-27T01:58:07.141Z,102112.34
2019-06-27T02:03:12.354Z,102110.63
2019-06-27T02:08:15.845Z,102117.34
2019-06-27T02:13:19.430Z,102114.47
2019-06-27T02:18:23.006Z,102114.66
2019-06-27T02:23:26.058Z,102111.51
2019-06-27T02:28:29.347Z,102118.95
2019-06-27T02:33:31.957Z,102113.58
2019-06-27T02:38:35.285Z,102112.78
2019-06-27T02:43:38.884Z,102107.30
2019-06-27T02:48:42.167Z,102106.84
2019-06-27T02:53:45.479Z,102113.66
2019-06-27T02:58:51.131Z,102104.83
2019-06-27T03:03:54.450Z,102094.52
2019-06-27T03:08:57.765Z,102109.95
2019-06-27T03:14:00.330Z,102109.46
2019-06-27T03:19:04.075Z,102105.10
2019-06-27T03:24:07.300Z,102105.41
2019-06-27T03:29:10.829Z,102104.19
2019-06-27T03:34:14.023Z,102105.13
2019-06-27T03:39:17.334Z,102107.25
2019-06-27T03:44:20.600Z,102106.44
2019-06-27T03:49:23.775Z,102104.70
2019-06-27T03:54:27.024Z,102100.66
2019-06-27T03:59:30.620Z,102103.41
2019-06-27T04:04:33.999Z,102097.02
2019-06-27T04:09:37.115Z,102093.39
2019-06-27T04:14:40.799Z,102097.68
2019-06-27T04:19:44.465Z,102105.54
2019-06-27T04:24:47.761Z,102108.02
2019-06-27T04:29:51.071Z,102117.15
2019-06-27T04:34:53.976Z,102115.64
2019-06-27T04:39:57.495Z,102112.88
2019-06-27T04:45:01.056Z,102114.73
2019-06-27T04:55:07.370Z,102103.27
2019-06-27T05:00:14.956Z,102116.84
2019-06-27T05:05:18.246Z,102109.28
2019-06-27T05:10:21.903Z,102108.86
2019-06-27T05:15:25.488Z,102118.55
2019-06-27T05:20:28.797Z,102120.71
2019-06-27T05:25:31.776Z,102117.91
2019-06-27T05:30:34.706Z,102124.11
2019-06-27T05:35:38.028Z,102126.46
2019-06-27T05:40:41.295Z,102120.72
2019-06-27T05:45:44.499Z,102130.25
2019-06-27T05:50:47.712Z,102126.31
2019-06-27T05:55:51.015Z,102127.55
2019-06-27T06:00:54.387Z,102120.18
2019-06-27T06:05:57.097Z,102128.71
2019-06-27T06:11:00.397Z,102121.22
2019-06-27T06:16:03.609Z,102121.45
2019-06-27T06:21:06.508Z,102118.98
2019-06-27T06:26:09.476Z,102125.41
2019-06-27T06:31:13.132Z,102113.39
2019-06-27T06:36:16.444Z,102118.73
2019-06-27T06:41:19.684Z,102126.00
2019-06-27T06:46:22.940Z,102121.13
2019-06-27T06:51:25.558Z,102132.21
2019-06-27T06:56:30.418Z,102129.32
2019-06-27T07:01:33.669Z,102132.77
2019-06-27T07:06:36.886Z,102133.47
2019-06-27T07:11:40.292Z,102137.73
2019-06-27T07:16:43.639Z,102148.20
2019-06-27T07:21:47.228Z,102154.55
2019-06-27T07:26:50.482Z,102147.50
2019-06-27T07:31:54.962Z,102153.23
2019-06-27T07:37:01.044Z,102160.77
2019-06-27T07:42:04.648Z,102163.42
2019-06-27T07:47:07.574Z,102164.38
2019-06-27T07:52:10.937Z,102167.70
2019-06-27T07:57:14.514Z,102171.17
2019-06-27T08:02:17.740Z,102168.34
2019-06-27T08:07:21.438Z,102167.28
2019-06-27T08:12:25.247Z,102178.25
2019-06-27T08:17:28.857Z,102174.00
2019-06-27T08:22:31.800Z,102179.33
2019-06-27T08:27:35.169Z,102184.43
2019-06-27T08:32:38.767Z,102187.41
2019-06-27T08:37:42.054Z,102193.33
2019-06-27T08:42:45.697Z,102199.09
2019-06-27T08:47:49.023Z,102205.67
2019-06-27T08:52:52.314Z,102195.04
2019-06-27T08:57:55.704Z,102205.59
2019-06-27T09:02:58.963Z,102210.88
2019-06-27T09:08:02.638Z,102205.52
2019-06-27T09:13:05.553Z,102203.42
2019-06-27T09:18:09.980Z,102213.48
2019-06-27T09:23:41.539Z,102206.75
2019-06-27T09:29:04.286Z,102202.70
2019-06-27T09:34:23.970Z,102201.47
2019-06-27T09:39:51.433Z,102202.14
2019-06-27T09:45:28.644Z,102212.19
2019-06-27T09:51:03.326Z,102201.20
2019-06-27T09:56:13.244Z,102197.02
2019-06-27T10:01:48.694Z,102205.00
2019-06-27T10:07:23.187Z,102196.75
2019-06-27T10:12:58.157Z,102204.42
2019-06-27T10:18:15.497Z,102195.94
2019-06-27T10:23:50.814Z,102198.94
2019-06-27T10:29:26.133Z,102191.03
2019-06-27T10:34:56.037Z,102198.39
2019-06-27T10:40:31.727Z,102192.75
2019-06-27T10:45:46.091Z,102184.16
2019-06-27T10:50:57.105Z,102183.13
2019-06-27T10:56:01.172Z,102181.20
2019-06-27T11:01:05.193Z,102186.41
2019-06-27T11:06:08.128Z,102183.76
2019-06-27T11:11:12.295Z,102186.69
2019-06-27T11:16:16.017Z,102176.59
2019-06-27T11:21:21.386Z,102177.44
2019-06-27T11:26:24.131Z,102180.70
2019-06-27T11:31:27.311Z,102174.54
2019-06-27T11:36:30.558Z,102186.37
2019-06-27T11:41:34.096Z,102186.86
2019-06-27T11:46:36.674Z,102184.27
2019-06-27T11:51:40.243Z,102180.25
2019-06-27T11:56:43.614Z,102173.28
2019-06-27T12:01:46.921Z,102184.27
2019-06-27T12:06:50.066Z,102178.63
2019-06-27T12:11:52.283Z,102187.47
2019-06-27T12:16:54.816Z,102186.34
2019-06-27T12:21:58.121Z,102188.34
2019-06-27T12:27:01.445Z,102178.11
2019-06-27T12:32:05.062Z,102167.59
2019-06-27T12:37:08.634Z,102181.45
2019-06-27T12:42:12.198Z,102177.40
2019-06-27T12:47:15.514Z,102172.40
2019-06-27T12:52:19.071Z,102171.84
2019-06-27T12:57:22.135Z,102168.68
2019-06-27T13:02:25.719Z,102162.26
2019-06-27T13:07:28.825Z,102158.93
2019-06-27T13:12:32.423Z,102162.70
2019-06-27T13:17:35.657Z,102148.83
2019-06-27T13:22:39.335Z,102140.73
2019-06-27T13:27:42.511Z,102137.77
2019-06-27T13:32:46.137Z,102139.56
2019-06-27T13:37:49.688Z,102145.09
2019-06-27T13:42:55.631Z,102134.22
2019-06-27T13:47:58.868Z,102150.20
2019-06-27T13:53:02.162Z,102136.30
2019-06-27T13:58:05.138Z,102137.90
2019-06-27T14:03:07.977Z,102136.72
2019-06-27T14:08:11.389Z,102133.17
2019-06-27T14:13:14.759Z,102125.92
2019-06-27T14:18:21.112Z,102127.39
2019-06-27T14:23:24.675Z,102120.27
2019-06-27T14:28:27.925Z,102121.77
2019-06-27T14:33:30.913Z,102112.40
2019-06-27T14:38:33.964Z,102111.09
2019-06-27T14:43:38.016Z,102107.55
2019-06-27T14:48:41.138Z,102108.20
2019-06-27T14:53:44.653Z,102107.48
2019-06-27T14:58:47.925Z,102108.62
2019-06-27T15:03:51.311Z,102103.38
2019-06-27T15:08:55.117Z,102112.18
2019-06-27T15:13:58.392Z,102112.73
2019-06-27T15:19:01.981Z,102110.56
2019-06-27T15:24:06.277Z,102107.02
2019-06-27T15:29:09.501Z,102113.58
2019-06-27T15:34:13.078Z,102111.36
2019-06-27T15:39:16.019Z,102117.75
2019-06-27T15:44:20.734Z,102129.28
2019-06-27T15:49:23.773Z,102120.59
2019-06-27T15:54:27.027Z,102124.64
2019-06-27T15:59:30.668Z,102135.02
2019-06-27T16:04:34.806Z,102125.25
2019-06-27T16:09:39.196Z,102117.70
2019-06-27T16:14:43.014Z,102105.70
2019-06-27T16:19:45.958Z,102103.31
2019-06-27T16:24:49.609Z,102095.23
2019-06-27T16:29:53.136Z,102088.27
2019-06-27T16:34:56.668Z,102082.61
2019-06-27T16:39:59.664Z,102089.50
2019-06-27T16:45:03.471Z,102090.80
2019-06-27T16:50:07.587Z,102103.84
2019-06-27T16:55:13.080Z,102103.33
2019-06-27T17:00:17.245Z,102098.34
2019-06-27T17:05:21.158Z,102099.60
2019-06-27T17:10:24.044Z,102093.75
2019-06-27T17:15:27.677Z,102099.80
2019-06-27T17:20:31.212Z,102096.17
2019-06-27T17:25:34.520Z,102093.98
2019-06-27T17:30:37.604Z,102097.14
2019-06-27T17:35:40.929Z,102091.45
2019-06-27T17:40:44.428Z,102102.45
2019-06-27T17:45:47.668Z,102101.73
2019-06-27T17:50:51.257Z,102099.22
2019-06-27T17:55:54.828Z,102112.25
2019-06-27T18:00:58.656Z,102110.34
2019-06-27T18:06:02.216Z,102100.36
2019-06-27T18:11:05.801Z,102110.17
2019-06-27T18:16:08.959Z,102120.31
2019-06-27T18:21:12.012Z,102117.61
2019-06-27T18:26:15.293Z,102112.23
2019-06-27T18:31:18.381Z,102112.13
2019-06-27T18:36:22.071Z,102111.94
2019-06-27T18:41:25.641Z,102110.06
2019-06-27T18:46:28.982Z,102113.25
2019-06-27T18:51:32.454Z,102116.84
2019-06-27T18:56:35.870Z,102123.50
2019-06-27T19:01:38.844Z,102130.43
2019-06-27T19:06:41.434Z,102135.75
2019-06-27T19:11:45.180Z,102139.84
2019-06-27T19:16:48.604Z,102137.03
2019-06-27T19:21:59.899Z,102138.78
2019-06-27T19:27:03.529Z,102145.55
2019-06-27T19:32:06.934Z,102153.59
2019-06-27T19:37:13.753Z,102147.79
2019-06-27T19:42:17.722Z,102154.70
2019-06-27T19:47:23.145Z,102157.17
2019-06-27T20:08:35.909Z,102182.19
2019-06-27T20:31:26.456Z,102175.87
2019-06-27T21:29:07.031Z,102180.48
2019-06-27T21:34:10.241Z,102179.42
2019-06-27T21:39:13.882Z,102181.05
2019-06-27T21:44:17.282Z,102194.66
2019-06-27T21:49:20.557Z,102184.23
2019-06-27T21:54:23.873Z,102174.91
2019-06-27T21:59:27.158Z,102177.67
2019-06-27T22:04:30.718Z,102178.73
2019-06-27T22:09:34.355Z,102175.27
2019-06-27T22:14:36.981Z,102182.17
2019-06-27T22:19:40.377Z,102188.41
2019-06-27T22:24:44.022Z,102177.39
2019-06-27T22:29:46.995Z,102168.61
2019-06-27T22:34:50.233Z,102176.36
2019-06-27T22:40:11.951Z,102173.60
2019-06-27T22:45:33.597Z,102171.08
2019-06-27T22:51:01.781Z,102173.33
2019-06-27T22:56:05.408Z,102173.25
2019-06-27T23:01:08.639Z,102176.04
2019-06-27T23:06:12.146Z,102179.37
2019-06-27T23:11:15.761Z,102179.91
2019-06-27T23:16:19.189Z,102174.72
2019-06-27T23:21:22.418Z,102181.77
2019-06-27T23:26:27.090Z,102178.36
2019-06-27T23:31:30.551Z,102172.89
2019-06-27T23:36:33.131Z,102185.14
2019-06-27T23:41:36.097Z,102183.83
2019-06-27T23:46:41.081Z,102178.34
2019-06-27T23:51:46.140Z,102186.13
2019-06-27T23:56:49.098Z,102180.92
